Terminal Aerodrome Forecast
Issued by NWS

Current Version | Previous Version | Text Only | Print | Product List | Glossary Off
Versions: 1 2 3 4 5 6 7 8 9 10 11 12 13 14

864
FTUS42 KILM 192322
TAFCRE
TAF
KCRE 192322Z 2000/2024 VRB03KT P6SM VCSH SCT040
     FM200400 23005KT P6SM FEW045
      TEMPO 2008/2010 3SM BR BKN005
     FM202000 18011KT P6SM FEW045=

USA.gov is the U.S. government's official web portal to all federal, state and local government web resources and services.